Time;durP1;ratioP1;P1;durP2;ratioP2;P2;SDS_P1;SDS_P2;PMS_P1;PMS_P2;Temp;Humidity;BMP_temperature;BMP_pressure;BME280_temperature;BME280_humidity;BME280_pressure;Samples;Min_cycle;Max_cycle;Signal;HPM_P1;HPM_P2
2022/09/19 00:01:46;;;;;;;2.50;1.70;;;12.30;99.90;;;;;;4929468;29;20067;-90
2022/09/19 00:04:20;;;;;;;2.13;1.95;;;12.20;99.90;;;;;;4898241;29;20028;-91
2022/09/19 00:06:47;;;;;;;3.45;1.48;;;12.20;99.90;;;;;;4913716;29;20098;-91
2022/09/19 00:09:16;;;;;;;1.50;1.40;;;12.20;99.90;;;;;;4915418;29;20088;-90
2022/09/19 00:11:44;;;;;;;1.15;1.05;;;12.30;99.90;;;;;;4919062;29;20046;-93
2022/09/19 00:14:14;;;;;;;5.03;2.33;;;12.20;99.90;;;;;;4946480;29;20031;-90
2022/09/19 00:16:42;;;;;;;5.05;1.45;;;12.20;99.90;;;;;;4948249;29;20099;-90
2022/09/19 00:19:11;;;;;;;2.42;1.95;;;12.20;99.90;;;;;;4932346;29;20027;-92
2022/09/19 00:21:39;;;;;;;4.23;2.00;;;12.20;99.90;;;;;;4932303;29;20035;-91
2022/09/19 00:26:55;;;;;;;3.22;1.60;;;12.20;99.90;;;;;;4935203;29;20051;-91
2022/09/19 00:29:23;;;;;;;2.50;1.58;;;12.10;99.90;;;;;;4932758;29;20067;-91
2022/09/19 00:31:50;;;;;;;1.95;1.25;;;12.10;99.90;;;;;;4932430;29;20038;-91
2022/09/19 00:34:17;;;;;;;4.13;1.92;;;12.10;99.90;;;;;;4947978;29;20035;-91
2022/09/19 00:36:45;;;;;;;2.72;1.50;;;12.10;99.90;;;;;;4947682;29;20103;-90
2022/09/19 00:39:13;;;;;;;3.47;1.63;;;12.30;99.90;;;;;;4947814;29;20108;-91
2022/09/19 00:41:39;;;;;;;2.08;1.55;;;12.10;99.90;;;;;;4948120;29;20023;-90
2022/09/19 00:44:26;;;;;;;3.33;1.63;;;12.10;99.90;;;;;;4932042;29;20035;-90
2022/09/19 00:46:55;;;;;;;2.55;1.52;;;12.10;99.90;;;;;;4947899;29;20401;-91
2022/09/19 00:49:23;;;;;;;7.97;2.17;;;12.10;99.90;;;;;;4947865;29;20405;-91
2022/09/19 00:51:52;;;;;;;4.57;2.38;;;12.00;99.90;;;;;;4916497;29;20019;-91
2022/09/19 00:54:21;;;;;;;2.65;1.70;;;12.10;99.90;;;;;;4927552;29;20031;-91
2022/09/19 00:56:51;;;;;;;3.47;2.60;;;12.10;99.90;;;;;;4928872;29;20029;-90
2022/09/19 00:59:18;;;;;;;;;;;12.00;99.90;;;;;;4929495;29;20099;-91
2022/09/19 01:01:45;;;;;;;1.73;1.50;;;12.10;99.90;;;;;;4912872;29;19907;-92
2022/09/19 01:04:23;;;;;;;4.28;1.55;;;12.00;99.90;;;;;;4928512;29;20401;-91
2022/09/19 01:07:08;;;;;;;5.80;1.33;;;12.10;99.90;;;;;;4928554;29;20083;-90
2022/09/19 01:09:50;;;;;;;1.42;1.33;;;12.00;99.90;;;;;;4929877;29;20036;-91
2022/09/19 01:12:31;;;;;;;9.98;2.38;;;12.00;99.90;;;;;;4932605;29;20140;-92
2022/09/19 01:15:19;;;;;;;7.22;2.38;;;12.00;99.90;;;;;;4932431;29;20031;-90
2022/09/19 01:17:57;;;;;;;7.13;1.95;;;12.00;99.90;;;;;;4932456;29;20024;-91
2022/09/19 01:20:37;;;;;;;5.95;1.33;;;12.00;99.90;;;;;;4916755;29;20143;-91
2022/09/19 01:23:36;;;;;;;2.00;1.30;;;12.00;99.90;;;;;;4932559;29;20056;-91
2022/09/19 01:26:17;;;;;;;5.85;3.00;;;12.00;99.90;;;;;;4918512;29;20553;-91
2022/09/19 01:28:49;;;;;;;2.30;1.52;;;12.00;99.90;;;;;;4951276;29;20050;-91
2022/09/19 01:31:22;;;;;;;5.95;1.60;;;12.00;99.90;;;;;;4951553;29;20532;-91
2022/09/19 01:34:01;;;;;;;1.85;1.40;;;12.00;99.90;;;;;;4951494;29;20023;-91
2022/09/19 01:36:36;;;;;;;4.15;2.83;;;11.90;99.90;;;;;;4951077;29;20051;-92
2022/09/19 01:39:04;;;;;;;5.25;2.30;;;11.90;99.90;;;;;;4951378;29;20104;-90
2022/09/19 01:41:36;;;;;;;4.18;1.75;;;11.90;99.90;;;;;;4936093;29;20024;-92
2022/09/19 01:44:08;;;;;;;5.97;2.00;;;11.90;99.90;;;;;;4951077;29;20028;-90
2022/09/19 01:47:00;;;;;;;2.40;2.05;;;11.90;99.90;;;;;;4936507;29;20038;-90
2022/09/19 01:49:41;;;;;;;4.20;1.90;;;11.90;99.90;;;;;;4950787;29;20040;-91
2022/09/19 01:52:19;;;;;;;8.07;2.58;;;11.90;99.90;;;;;;4950882;29;20052;-91
2022/09/19 01:55:02;;;;;;;3.15;1.88;;;11.90;99.90;;;;;;4950550;29;20066;-90
2022/09/19 01:57:57;;;;;;;2.95;1.73;;;11.90;99.90;;;;;;4951003;29;20032;-90
2022/09/19 02:00:26;;;;;;;3.00;2.10;;;11.90;99.90;;;;;;4951177;29;20035;-91
2022/09/19 02:03:29;;;;;;;2.38;1.63;;;11.90;99.90;;;;;;4934769;29;20042;-91
2022/09/19 02:06:18;;;;;;;4.50;1.60;;;11.90;99.90;;;;;;4951538;29;20035;-91
2022/09/19 02:09:17;;;;;;;6.28;1.45;;;11.90;99.90;;;;;;4939239;29;20024;-91
2022/09/19 02:11:46;;;;;;;9.02;2.45;;;11.90;99.90;;;;;;4924436;29;20103;-91
2022/09/19 02:14:18;;;;;;;8.23;3.35;;;11.80;99.90;;;;;;4915772;29;20095;-90
2022/09/19 02:17:06;;;;;;;4.93;2.08;;;11.80;99.90;;;;;;4932094;29;20052;-89
2022/09/19 02:20:02;;;;;;;6.10;1.83;;;11.80;99.90;;;;;;4931546;29;20029;-91
2022/09/19 02:22:31;;;;;;;2.95;1.52;;;11.80;99.90;;;;;;4931071;29;20127;-91
2022/09/19 02:25:13;;;;;;;5.45;2.75;;;11.80;99.90;;;;;;4931111;29;20032;-91
2022/09/19 02:27:50;;;;;;;6.75;1.98;;;11.80;99.90;;;;;;4931274;29;20032;-91
2022/09/19 02:30:20;;;;;;;2.45;0.95;;;11.70;99.90;;;;;;4931036;29;20075;-91
2022/09/19 02:32:47;;;;;;;4.38;1.73;;;11.80;99.90;;;;;;4916148;29;20039;-90
2022/09/19 02:35:34;;;;;;;7.38;2.03;;;11.80;99.90;;;;;;4931218;29;20036;-91
2022/09/19 02:38:25;;;;;;;6.45;2.90;;;11.80;99.90;;;;;;4941459;29;20086;-91
2022/09/19 02:40:51;;;;;;;7.15;2.65;;;11.80;99.90;;;;;;4950094;29;20032;-90
2022/09/19 02:43:34;;;;;;;8.20;1.67;;;11.70;99.90;;;;;;4949930;29;20037;-91
2022/09/19 02:46:11;;;;;;;5.57;2.85;;;11.70;99.90;;;;;;4942983;29;20028;-90
2022/09/19 02:48:45;;;;;;;3.42;1.73;;;11.70;99.90;;;;;;4914993;29;20036;-90
2022/09/19 02:51:16;;;;;;;5.30;1.40;;;11.70;99.90;;;;;;4915150;29;20059;-91
2022/09/19 02:54:06;;;;;;;1.98;1.30;;;11.70;99.90;;;;;;4915276;29;20492;-90
2022/09/19 02:56:34;;;;;;;3.70;1.63;;;11.70;99.90;;;;;;4930881;29;20039;-91
2022/09/19 02:59:17;;;;;;;3.00;1.48;;;11.70;99.90;;;;;;4930492;29;20050;-91
2022/09/19 03:01:57;;;;;;;5.63;1.52;;;11.70;99.90;;;;;;4945289;29;20031;-91
2022/09/19 03:04:29;;;;;;;11.43;3.00;;;11.70;99.90;;;;;;4949647;29;20023;-90
2022/09/19 03:07:27;;;;;;;2.45;1.42;;;11.70;99.90;;;;;;4949706;29;20039;-90
2022/09/19 03:10:12;;;;;;;11.43;2.10;;;11.70;99.90;;;;;;4951471;29;20038;-90
2022/09/19 03:13:05;;;;;;;4.28;1.90;;;11.70;99.90;;;;;;4949627;29;20031;-91
2022/09/19 03:15:36;;;;;;;4.85;1.80;;;11.60;99.90;;;;;;4949402;29;20031;-90
2022/09/19 03:18:12;;;;;;;1.98;1.17;;;11.70;99.90;;;;;;4949125;29;20024;-91
2022/09/19 03:20:39;;;;;;;6.75;2.50;;;11.70;99.90;;;;;;4949262;29;20032;-91
2022/09/19 03:23:08;;;;;;;5.10;1.02;;;11.60;99.90;;;;;;4933743;29;20548;-91
2022/09/19 03:25:35;;;;;;;4.65;1.15;;;11.60;99.90;;;;;;4933277;29;20032;-90
2022/09/19 03:28:02;;;;;;;3.08;1.65;;;11.60;99.90;;;;;;4949037;29;20039;-90
2022/09/19 03:30:28;;;;;;;9.85;2.13;;;11.60;99.90;;;;;;4917677;29;20035;-91
2022/09/19 03:32:54;;;;;;;5.85;1.88;;;11.60;99.90;;;;;;4932749;29;20112;-91
2022/09/19 03:35:22;;;;;;;2.92;1.60;;;11.60;99.90;;;;;;4948724;29;20039;-90
2022/09/19 03:37:50;;;;;;;4.35;1.60;;;11.60;99.90;;;;;;4933578;29;20044;-90
2022/09/19 03:40:18;;;;;;;4.25;1.17;;;11.60;99.90;;;;;;4933121;29;20063;-90
2022/09/19 03:42:50;;;;;;;4.65;2.42;;;11.60;99.90;;;;;;4949168;29;20035;-91
2022/09/19 03:45:17;;;;;;;7.20;2.25;;;11.60;99.90;;;;;;4948859;29;20027;-91
2022/09/19 03:47:43;;;;;;;4.60;1.35;;;11.60;99.90;;;;;;4932726;29;20516;-90
2022/09/19 03:50:08;;;;;;;4.93;2.35;;;11.60;99.90;;;;;;4932862;29;20031;-91
2022/09/19 03:52:47;;;;;;;5.93;2.83;;;11.60;99.90;;;;;;4934165;29;20055;-90
2022/09/19 03:55:13;;;;;;;4.28;1.35;;;11.50;99.90;;;;;;4933384;29;20032;-91
2022/09/19 03:57:40;;;;;;;8.15;1.85;;;11.50;99.90;;;;;;4932854;29;20020;-90
2022/09/19 04:00:07;;;;;;;6.00;1.85;;;11.50;99.90;;;;;;4932546;29;20032;-90
2022/09/19 04:02:42;;;;;;;5.80;1.10;;;11.50;99.90;;;;;;4934211;29;20058;-90
2022/09/19 04:05:13;;;;;;;3.92;2.10;;;11.50;99.90;;;;;;4948686;29;20175;-91
2022/09/19 04:07:39;;;;;;;8.77;1.63;;;11.50;99.90;;;;;;4948576;29;20131;-90
2022/09/19 04:10:07;;;;;;;1.92;1.15;;;11.50;99.90;;;;;;4912541;29;20041;-91
2022/09/19 04:12:33;;;;;;;2.47;1.80;;;11.50;99.90;;;;;;4893363;29;20072;-90
2022/09/19 04:15:00;;;;;;;5.88;2.92;;;11.50;99.90;;;;;;4893757;29;20068;-91
2022/09/19 04:17:30;;;;;;;5.53;2.35;;;11.50;99.90;;;;;;4901776;29;20091;-90
2022/09/19 04:20:03;;;;;;;2.03;1.58;;;11.40;99.90;;;;;;4928306;29;20039;-90
2022/09/19 04:22:40;;;;;;;6.47;2.88;;;11.50;99.90;;;;;;4912764;29;20104;-90
2022/09/19 04:25:34;;;;;;;4.40;1.92;;;11.50;99.90;;;;;;4902908;29;20048;-90
2022/09/19 04:28:13;;;;;;;4.15;1.35;;;11.50;99.90;;;;;;4926716;29;20071;-90
2022/09/19 04:30:41;;;;;;;10.65;1.67;;;11.40;99.90;;;;;;4896816;29;20047;-90
2022/09/19 04:33:10;;;;;;;5.38;1.70;;;11.40;99.90;;;;;;4896715;29;20024;-90
2022/09/19 04:35:38;;;;;;;4.07;1.73;;;11.40;99.90;;;;;;4896894;29;20558;-91
2022/09/19 04:38:08;;;;;;;5.10;2.30;;;11.40;99.90;;;;;;4896830;29;20588;-90
2022/09/19 04:40:39;;;;;;;7.65;2.38;;;11.40;99.90;;;;;;4896607;29;20288;-90
2022/09/19 04:43:05;;;;;;;;;;;11.40;99.90;;;;;;4912671;29;20054;-91
2022/09/19 04:45:32;;;;;;;9.30;4.30;;;11.40;99.90;;;;;;4896073;29;19970;-90
2022/09/19 04:48:12;;;;;;;4.72;2.15;;;11.40;99.90;;;;;;4925508;29;20051;-91
2022/09/19 04:50:38;;;;;;;4.53;1.55;;;11.40;99.90;;;;;;4930986;29;20035;-90
2022/09/19 04:53:05;;;;;;;4.47;2.72;;;11.40;99.90;;;;;;4927477;29;20473;-90
2022/09/19 04:55:31;;;;;;;3.85;1.48;;;11.40;99.90;;;;;;4927868;29;20020;-91
2022/09/19 04:57:57;;;;;;;6.93;2.40;;;11.40;99.90;;;;;;4947101;29;20034;-91
2022/09/19 05:00:39;;;;;;;4.60;2.47;;;11.40;99.90;;;;;;4942332;29;20028;-90
2022/09/19 05:03:15;;;;;;;5.40;2.55;;;11.40;99.90;;;;;;4947258;29;20090;-90
2022/09/19 05:05:44;;;;;;;1.55;0.90;;;11.40;99.90;;;;;;4932380;29;20027;-91
2022/09/19 05:08:18;;;;;;;5.43;2.00;;;11.40;99.90;;;;;;4929699;29;20020;-91
2022/09/19 05:10:45;;;;;;;8.52;1.83;;;11.40;99.90;;;;;;4929699;29;20035;-92
2022/09/19 05:13:11;;;;;;;5.25;2.40;;;11.40;99.90;;;;;;4930779;29;20094;-91
2022/09/19 05:15:41;;;;;;;10.27;2.78;;;11.40;99.90;;;;;;4913608;29;20032;-92
2022/09/19 05:18:10;;;;;;;3.50;1.67;;;11.40;99.90;;;;;;4930907;29;20028;-90
2022/09/19 05:20:37;;;;;;;1.50;0.95;;;11.40;99.90;;;;;;4931528;29;20031;-90
2022/09/19 05:23:03;;;;;;;11.82;2.85;;;11.40;99.90;;;;;;4915563;29;20043;-90
2022/09/19 05:25:34;;;;;;;4.97;1.95;;;11.40;99.90;;;;;;4931330;29;20031;-90
2022/09/19 05:28:04;;;;;;;7.22;1.98;;;11.30;99.90;;;;;;4929834;29;20028;-91
2022/09/19 05:30:32;;;;;;;7.40;3.15;;;11.30;99.90;;;;;;4952460;29;20104;-92
2022/09/19 05:32:59;;;;;;;7.60;1.90;;;11.30;99.90;;;;;;4922422;29;20087;-90
2022/09/19 05:35:34;;;;;;;3.80;2.67;;;11.30;99.90;;;;;;4946468;29;20028;-91
2022/09/19 05:38:13;;;;;;;9.20;3.38;;;11.30;99.90;;;;;;4932773;29;20042;-90
2022/09/19 05:40:56;;;;;;;15.10;3.35;;;11.30;99.90;;;;;;4919631;29;20035;-91
2022/09/19 05:43:38;;;;;;;5.10;2.13;;;11.30;99.90;;;;;;4927988;29;20028;-91
2022/09/19 05:46:05;;;;;;;5.75;2.00;;;;;;;;;;4925643;29;20047;-91
2022/09/19 05:48:32;;;;;;;2.75;2.10;;;11.30;99.90;;;;;;4941271;29;20175;-90
2022/09/19 05:50:58;;;;;;;4.07;2.03;;;11.30;99.90;;;;;;4930884;29;20082;-91
2022/09/19 05:56:29;;;;;;;2.95;1.92;;;11.30;99.90;;;;;;4946246;29;20067;-92
2022/09/19 05:59:06;;;;;;;4.25;2.47;;;11.30;99.90;;;;;;4936120;29;20408;-91
2022/09/19 06:02:14;;;;;;;8.13;2.08;;;11.30;99.90;;;;;;4935308;29;20032;-92
2022/09/19 06:04:51;;;;;;;3.95;2.25;;;11.30;99.90;;;;;;4935848;29;20042;-90
2022/09/19 06:07:16;;;;;;;2.55;1.65;;;11.30;99.90;;;;;;4918717;29;20032;-87
2022/09/19 06:09:44;;;;;;;8.55;2.83;;;11.30;99.90;;;;;;4933648;29;20042;-88
2022/09/19 06:12:12;;;;;;;6.40;2.30;;;11.40;99.90;;;;;;4934443;29;20040;-88
2022/09/19 06:14:38;;;;;;;5.13;2.63;;;11.40;99.90;;;;;;4950764;29;20063;-88
2022/09/19 06:17:06;;;;;;;7.88;2.88;;;11.40;99.90;;;;;;4934679;29;20032;-87
2022/09/19 06:19:50;;;;;;;18.83;3.22;;;11.40;99.90;;;;;;4937459;29;20047;-87
2022/09/19 06:22:22;;;;;;;4.88;2.80;;;11.40;99.90;;;;;;4935464;29;20055;-88
2022/09/19 06:24:51;;;;;;;7.47;4.03;;;11.40;99.90;;;;;;4949930;29;20032;-87
2022/09/19 06:27:19;;;;;;;8.52;3.55;;;11.50;99.90;;;;;;4934734;29;20019;-88
2022/09/19 06:29:46;;;;;;;2.55;1.90;;;11.40;99.90;;;;;;4950426;29;20036;-88
2022/09/19 06:32:21;;;;;;;3.58;1.58;;;11.50;99.90;;;;;;4937967;29;20115;-88
2022/09/19 06:34:49;;;;;;;7.68;2.08;;;11.50;99.90;;;;;;4916011;29;20048;-88
2022/09/19 06:37:15;;;;;;;3.42;1.67;;;11.50;99.90;;;;;;4914928;29;20127;-88
2022/09/19 06:39:41;;;;;;;3.17;1.63;;;11.50;99.90;;;;;;4931150;29;20067;-88
2022/09/19 06:42:42;;;;;;;7.47;2.90;;;11.60;99.90;;;;;;4900006;29;20040;-88
2022/09/19 06:45:40;;;;;;;6.03;2.55;;;11.60;99.90;;;;;;4907734;29;20068;-87
2022/09/19 06:48:24;;;;;;;4.70;2.95;;;11.60;99.90;;;;;;4931313;29;20047;-87
2022/09/19 06:51:29;;;;;;;8.45;2.38;;;11.60;99.90;;;;;;4900400;29;20128;-87
2022/09/19 06:53:55;;;;;;;8.00;2.35;;;11.60;99.90;;;;;;4895516;29;20601;-88
2022/09/19 06:56:21;;;;;;;8.68;2.50;;;11.60;99.90;;;;;;4904767;29;20044;-88
2022/09/19 06:58:47;;;;;;;18.77;3.53;;;11.60;99.90;;;;;;4914902;29;20036;-88
2022/09/19 07:01:13;;;;;;;8.35;2.80;;;11.60;99.90;;;;;;4919862;29;20048;-88
2022/09/19 07:03:41;;;;;;;5.30;1.83;;;11.60;99.90;;;;;;4930332;29;20086;-88
2022/09/19 07:06:10;;;;;;;3.53;2.13;;;11.60;99.90;;;;;;4914954;29;20028;-88
2022/09/19 07:08:39;;;;;;;5.28;2.35;;;;;;;;;;4946603;29;20590;-87
2022/09/19 07:11:08;;;;;;;4.50;2.17;;;11.60;99.90;;;;;;4945742;29;20075;-88
2022/09/19 07:13:38;;;;;;;;;;;11.70;99.90;;;;;;4916012;29;20504;-88
2022/09/19 07:16:06;;;;;;;6.32;2.38;;;11.70;99.90;;;;;;4930686;29;19911;-88
2022/09/19 07:18:35;;;;;;;3.58;2.08;;;;;;;;;;4914462;29;20100;-88
2022/09/19 07:21:20;;;;;;;1.80;1.60;;;11.70;99.90;;;;;;4946338;29;20035;-87
2022/09/19 07:23:47;;;;;;;2.85;2.58;;;11.70;99.90;;;;;;4930110;29;20032;-88
2022/09/19 07:26:30;;;;;;;6.88;2.95;;;11.80;99.90;;;;;;4930212;29;20024;-87
2022/09/19 07:28:57;;;;;;;4.30;1.83;;;11.80;99.90;;;;;;4914695;29;20035;-87
2022/09/19 07:31:23;;;;;;;3.25;1.58;;;11.80;99.90;;;;;;4914341;29;20037;-87
2022/09/19 07:33:49;;;;;;;3.15;2.45;;;11.80;99.90;;;;;;4939547;29;20383;-88
2022/09/19 07:36:15;;;;;;;6.90;2.45;;;11.80;99.90;;;;;;4898397;29;20062;-88
2022/09/19 07:38:43;;;;;;;8.30;2.53;;;11.80;99.90;;;;;;4930008;29;20072;-88
2022/09/19 07:41:46;;;;;;;8.07;3.28;;;11.80;99.90;;;;;;4922254;29;20052;-87
2022/09/19 07:44:37;;;;;;;3.58;2.13;;;11.80;99.90;;;;;;4917424;29;20032;-87
2022/09/19 07:47:28;;;;;;;7.18;2.75;;;11.90;99.90;;;;;;4929919;29;20024;-88
2022/09/19 07:50:17;;;;;;;8.68;3.33;;;11.90;99.90;;;;;;4929677;29;20046;-88
2022/09/19 07:53:15;;;;;;;11.25;2.63;;;11.90;99.90;;;;;;4919969;29;20036;-88
2022/09/19 07:55:42;;;;;;;6.95;2.50;;;11.90;99.90;;;;;;4929782;29;20028;-88
2022/09/19 07:58:11;;;;;;;6.03;2.75;;;11.90;99.90;;;;;;4929713;29;20032;-88
2022/09/19 08:00:42;;;;;;;9.18;2.33;;;11.90;99.90;;;;;;4930756;29;20024;-87
2022/09/19 08:03:12;;;;;;;11.35;3.65;;;11.90;99.90;;;;;;4944907;29;20069;-88
2022/09/19 08:05:41;;;;;;;5.85;2.38;;;12.00;99.90;;;;;;4913789;29;20032;-89
2022/09/19 08:08:10;;;;;;;9.10;2.50;;;12.00;99.90;;;;;;4929651;29;20036;-87
2022/09/19 08:10:39;;;;;;;3.47;2.33;;;12.00;99.90;;;;;;4913846;29;20056;-88
2022/09/19 08:13:07;;;;;;;12.02;3.95;;;12.00;99.90;;;;;;4945367;29;20028;-88
2022/09/19 08:15:34;;;;;;;6.47;2.60;;;12.00;99.90;;;;;;4913983;29;20043;-88
2022/09/19 08:18:03;;;;;;;6.63;2.05;;;12.10;99.90;;;;;;4913697;29;20102;-87
2022/09/19 08:20:39;;;;;;;3.45;2.53;;;12.10;99.90;;;;;;4929355;29;20111;-87
2022/09/19 08:23:09;;;;;;;4.22;2.33;;;12.20;99.90;;;;;;4913936;29;20553;-89
2022/09/19 08:25:38;;;;;;;3.92;2.20;;;12.30;99.90;;;;;;4929462;29;20068;-88
2022/09/19 08:28:04;;;;;;;3.45;0.98;;;12.30;99.90;;;;;;4929150;29;20051;-88
2022/09/19 08:30:31;;;;;;;15.88;2.40;;;12.40;99.90;;;;;;4928957;29;20032;-88
2022/09/19 08:33:00;;;;;;;2.78;1.98;;;12.40;99.90;;;;;;4929371;29;20036;-88
2022/09/19 08:35:27;;;;;;;8.13;2.72;;;12.40;99.90;;;;;;4929058;29;20024;-88
2022/09/19 08:37:56;;;;;;;11.23;2.10;;;12.40;99.90;;;;;;4929150;29;20028;-89
2022/09/19 08:40:34;;;;;;;7.80;2.80;;;12.40;99.90;;;;;;4929382;29;20066;-89
2022/09/19 08:43:16;;;;;;;3.78;2.17;;;12.40;99.90;;;;;;4929385;29;20039;-88
2022/09/19 08:45:59;;;;;;;3.90;1.55;;;12.50;99.90;;;;;;4936697;29;20055;-88
2022/09/19 08:48:49;;;;;;;4.95;1.33;;;12.50;99.90;;;;;;4947822;29;20032;-89
2022/09/19 08:51:21;;;;;;;;;;;12.50;99.90;;;;;;4948497;29;20050;-88
2022/09/19 08:53:52;;;;;;;2.33;1.33;;;12.50;99.90;;;;;;4949256;29;19917;-88
2022/09/19 08:56:19;;;;;;;1.58;1.48;;;12.50;99.90;;;;;;4947890;29;20024;-89
2022/09/19 08:58:54;;;;;;;5.47;1.85;;;12.50;99.90;;;;;;4931881;29;20027;-88
2022/09/19 09:01:55;;;;;;;8.02;2.22;;;12.50;99.90;;;;;;4921733;29;20036;-89
2022/09/19 09:04:58;;;;;;;13.55;2.40;;;12.60;99.90;;;;;;4917946;29;20062;-89
2022/09/19 09:07:55;;;;;;;1.25;0.90;;;12.60;99.90;;;;;;4913272;29;20024;-89
2022/09/19 09:10:55;;;;;;;5.35;0.68;;;12.60;99.90;;;;;;4928622;29;20036;-88
2022/09/19 09:13:51;;;;;;;1.42;1.20;;;12.70;99.90;;;;;;4913472;29;20067;-89
2022/09/19 09:16:57;;;;;;;3.55;1.63;;;12.70;99.90;;;;;;4927877;29;20020;-88
2022/09/19 09:19:36;;;;;;;2.80;1.15;;;12.80;99.90;;;;;;4947667;29;20024;-89
2022/09/19 09:22:08;;;;;;;5.03;1.63;;;12.80;99.90;;;;;;4932047;29;20035;-89
2022/09/19 09:24:52;;;;;;;6.00;2.75;;;12.80;99.90;;;;;;4932778;29;20397;-89
2022/09/19 09:27:36;;;;;;;7.10;1.92;;;12.80;99.90;;;;;;4947562;29;20031;-88
2022/09/19 09:30:16;;;;;;;5.25;1.20;;;12.80;99.90;;;;;;4948062;29;20032;-87
2022/09/19 09:32:56;;;;;;;2.97;1.40;;;12.80;99.90;;;;;;4951343;29;20087;-88
2022/09/19 09:35:39;;;;;;;1.75;1.15;;;12.80;99.90;;;;;;4951016;29;20087;-88
2022/09/19 09:38:30;;;;;;;6.07;1.63;;;12.90;99.90;;;;;;4935824;29;20027;-88
2022/09/19 09:44:03;;;;;;;1.92;0.90;;;12.90;99.90;;;;;;4952637;29;20036;-88
2022/09/19 09:46:58;;;;;;;;;;;12.90;99.90;;;;;;4951995;29;20031;-88
2022/09/19 09:49:30;;;;;;;3.60;2.27;;;12.90;99.90;;;;;;4950410;29;19919;-89
2022/09/19 09:52:21;;;;;;;2.05;1.13;;;13.00;99.90;;;;;;4932037;29;20302;-89
2022/09/19 09:57:46;;;;;;;2.40;0.68;;;13.00;99.90;;;;;;4931806;29;20028;-88
2022/09/19 10:03:49;;;;;;;3.67;1.00;;;13.00;99.90;;;;;;4931607;29;20044;-89
2022/09/19 10:06:29;;;;;;;7.50;2.55;;;13.10;99.90;;;;;;4949561;29;20058;-89
2022/09/19 10:09:08;;;;;;;1.77;0.95;;;13.10;99.90;;;;;;4950521;29;20032;-89
2022/09/19 10:11:50;;;;;;;1.58;1.15;;;13.10;99.90;;;;;;4935067;29;20052;-90
2022/09/19 10:14:23;;;;;;;3.42;1.92;;;13.10;99.90;;;;;;4950687;29;20050;-88
2022/09/19 10:16:59;;;;;;;1.67;0.98;;;13.10;99.90;;;;;;4951957;29;20034;-89
2022/09/19 10:19:42;;;;;;;3.33;1.67;;;13.20;99.90;;;;;;4950491;29;20027;-89
2022/09/19 10:22:14;;;;;;;4.68;1.92;;;13.20;99.90;;;;;;4931402;29;20489;-88
2022/09/19 10:24:56;;;;;;;8.27;2.35;;;13.30;99.90;;;;;;4949772;29;20075;-89
2022/09/19 10:27:32;;;;;;;4.50;1.48;;;13.40;99.90;;;;;;4950435;29;20032;-89
2022/09/19 10:30:18;;;;;;;3.40;1.48;;;13.60;99.90;;;;;;4951240;29;20099;-89
2022/09/19 10:32:46;;;;;;;1.52;0.77;;;13.90;99.90;;;;;;4966473;29;20024;-89
2022/09/19 10:35:41;;;;;;;2.10;1.52;;;14.00;99.90;;;;;;4935655;29;20064;-90
2022/09/19 10:38:15;;;;;;;3.47;1.33;;;14.10;99.90;;;;;;4916350;29;20032;-90
2022/09/19 10:40:58;;;;;;;2.13;1.45;;;14.10;99.90;;;;;;4931057;29;20032;-89
2022/09/19 10:43:45;;;;;;;9.85;2.00;;;14.10;99.90;;;;;;4931569;29;20032;-89
2022/09/19 10:46:21;;;;;;;5.47;1.70;;;14.20;99.90;;;;;;4931528;29;20552;-89
2022/09/19 10:48:59;;;;;;;10.15;2.20;;;14.30;99.90;;;;;;4932255;29;20043;-87
2022/09/19 10:51:47;;;;;;;3.33;1.60;;;14.40;99.90;;;;;;4946079;29;20047;-89
2022/09/19 10:54:36;;;;;;;4.75;1.27;;;14.40;99.90;;;;;;4950004;29;20024;-89
2022/09/19 10:57:26;;;;;;;2.50;0.93;;;14.50;99.90;;;;;;4914928;29;20028;-89
2022/09/19 11:00:02;;;;;;;7.55;1.67;;;14.50;99.90;;;;;;4944484;29;20043;-89
2022/09/19 11:02:30;;;;;;;1.88;1.55;;;14.60;99.90;;;;;;4933963;29;20024;-88
2022/09/19 11:05:02;;;;;;;4.60;1.90;;;14.70;99.90;;;;;;4932178;29;20032;-88
2022/09/19 11:07:48;;;;;;;6.47;1.83;;;14.80;99.90;;;;;;4930275;29;20510;-89
2022/09/19 11:10:38;;;;;;;2.92;0.70;;;14.90;99.90;;;;;;4936943;29;20031;-90
2022/09/19 11:13:28;;;;;;;4.78;2.33;;;15.00;99.90;;;;;;4934254;29;20040;-91
2022/09/19 11:16:22;;;;;;;1.58;1.25;;;14.90;99.90;;;;;;4927331;29;20043;-91
2022/09/19 11:19:03;;;;;;;4.35;2.08;;;14.80;99.90;;;;;;4934142;29;20038;-91
2022/09/19 11:21:55;;;;;;;2.92;1.25;;;14.70;99.90;;;;;;4926117;29;20028;-90
2022/09/19 11:24:43;;;;;;;5.97;1.60;;;14.60;99.90;;;;;;4940736;29;20492;-90
2022/09/19 11:27:18;;;;;;;4.78;1.75;;;14.60;99.90;;;;;;4935416;29;20025;-90
2022/09/19 11:30:01;;;;;;;3.33;0.70;;;14.50;99.90;;;;;;4938505;29;20410;-90
2022/09/19 11:32:44;;;;;;;2.72;1.10;;;14.50;99.90;;;;;;4944660;29;20023;-90
2022/09/19 11:35:31;;;;;;;1.25;1.10;;;14.50;99.90;;;;;;4920264;29;20036;-90
2022/09/19 11:38:15;;;;;;;1.83;1.13;;;14.40;99.90;;;;;;4930920;29;20095;-90
2022/09/19 11:41:18;;;;;;;1.88;0.90;;;14.30;99.90;;;;;;4933433;29;20024;-91
2022/09/19 11:44:00;;;;;;;2.33;1.17;;;14.30;99.90;;;;;;4946046;29;20035;-91
2022/09/19 11:46:49;;;;;;;7.45;1.42;;;14.20;99.90;;;;;;4949783;29;20116;-91
2022/09/19 11:49:50;;;;;;;1.10;0.40;;;14.20;99.90;;;;;;4934692;29;20042;-90
2022/09/19 11:52:35;;;;;;;2.30;0.70;;;14.20;99.90;;;;;;4948687;29;20055;-91
2022/09/19 11:55:13;;;;;;;5.43;1.55;;;14.20;99.90;;;;;;4923667;29;20028;-92
2022/09/19 11:57:58;;;;;;;9.10;2.33;;;14.30;99.90;;;;;;4949062;29;20393;-91
2022/09/19 12:00:28;;;;;;;3.75;1.23;;;14.30;99.90;;;;;;4948367;29;20024;-90
2022/09/19 12:03:10;;;;;;;8.13;1.60;;;14.30;99.90;;;;;;4938160;29;20067;-92
2022/09/19 12:06:07;;;;;;;5.63;1.00;;;14.30;99.90;;;;;;4937150;29;20028;-91
2022/09/19 12:09:00;;;;;;;7.68;1.58;;;14.40;99.90;;;;;;4948753;29;20048;-92
2022/09/19 12:11:39;;;;;;;5.32;1.70;;;14.40;99.90;;;;;;4948588;29;20028;-91
2022/09/19 12:14:22;;;;;;;4.63;0.93;;;14.50;99.90;;;;;;4931193;29;20036;-92
2022/09/19 12:16:57;;;;;;;4.63;1.95;;;14.70;99.90;;;;;;4951213;29;20028;-92
2022/09/19 12:19:34;;;;;;;1.17;0.43;;;14.90;99.90;;;;;;4930012;29;20032;-92
2022/09/19 12:22:18;;;;;;;1.75;0.60;;;14.90;99.90;;;;;;4947514;29;20047;-91
2022/09/19 12:24:58;;;;;;;2.88;0.88;;;14.90;99.90;;;;;;4930167;29;20028;-91
2022/09/19 12:27:31;;;;;;;4.30;0.77;;;14.90;99.90;;;;;;4929610;29;20028;-91
2022/09/19 12:30:08;;;;;;;;;;;15.10;99.90;;;;;;4930056;29;20028;-92
2022/09/19 12:32:47;;;;;;;4.20;0.63;;;15.10;99.90;;;;;;4934895;29;19923;-92
2022/09/19 12:35:22;;;;;;;6.10;1.02;;;15.20;99.90;;;;;;4932253;29;20115;-91
2022/09/19 12:38:15;;;;;;;2.33;0.70;;;15.30;99.90;;;;;;4942792;29;20035;-92
2022/09/19 12:41:09;;;;;;;4.63;2.00;;;15.20;99.90;;;;;;4927501;29;20031;-91
2022/09/19 12:44:13;;;;;;;1.75;0.80;;;15.10;99.90;;;;;;4927368;29;20074;-91
2022/09/19 12:47:04;;;;;;;0.98;0.30;;;15.10;99.90;;;;;;4930098;29;20031;-91
2022/09/19 12:50:00;;;;;;;3.53;1.38;;;15.00;99.90;;;;;;4930428;29;20042;-92
2022/09/19 12:52:36;;;;;;;10.90;1.30;;;15.10;99.90;;;;;;4929194;29;20024;-91
2022/09/19 12:55:22;;;;;;;4.35;1.33;;;15.20;99.90;;;;;;4929289;29;20039;-91
2022/09/19 12:57:51;;;;;;;4.43;1.30;;;15.20;99.90;;;;;;4913418;29;20034;-91
2022/09/19 13:00:18;;;;;;;4.00;1.50;;;15.20;99.90;;;;;;4940084;29;20032;-91
2022/09/19 13:03:13;;;;;;;4.55;0.95;;;15.30;99.90;;;;;;4902157;29;20044;-89
2022/09/19 13:06:05;;;;;;;2.60;1.08;;;15.30;99.90;;;;;;4902380;29;20044;-90
2022/09/19 13:08:37;;;;;;;5.18;1.55;;;15.40;99.90;;;;;;4919940;29;20027;-91
2022/09/19 13:11:16;;;;;;;0.80;0.55;;;15.40;99.90;;;;;;4944767;29;20040;-92
2022/09/19 13:13:47;;;;;;;5.55;1.30;;;15.40;99.90;;;;;;4929096;29;20064;-92
2022/09/19 13:16:17;;;;;;;2.95;0.93;;;15.40;99.90;;;;;;4929553;29;20032;-91
2022/09/19 13:24:38;;;;;;;6.00;0.82;;;15.10;99.90;;;;;;4948036;29;20043;-90
2022/09/19 13:27:04;;;;;;;6.88;1.75;;;15.10;99.90;;;;;;4936159;29;20038;-91
2022/09/19 13:29:31;;;;;;;6.72;1.27;;;15.10;99.90;;;;;;4928366;29;20055;-90
2022/09/19 13:32:02;;;;;;;2.97;0.77;;;15.10;99.90;;;;;;4930198;29;20047;-92
2022/09/19 13:34:41;;;;;;;3.60;0.93;;;15.20;99.90;;;;;;4946550;29;20444;-92
2022/09/19 13:37:26;;;;;;;1.92;1.15;;;15.10;99.90;;;;;;4947619;29;20122;-92
2022/09/19 13:40:14;;;;;;;4.47;0.77;;;15.20;99.90;;;;;;4944192;29;20047;-91
2022/09/19 13:42:46;;;;;;;1.13;0.98;;;15.20;99.90;;;;;;4937314;29;20031;-91
2022/09/19 13:45:34;;;;;;;4.07;0.98;;;15.20;99.90;;;;;;4938720;29;20043;-91
2022/09/19 13:48:30;;;;;;;2.40;0.77;;;15.30;99.90;;;;;;4943178;29;20038;-91
2022/09/19 13:51:04;;;;;;;2.25;1.15;;;15.30;99.90;;;;;;4927677;29;20047;-92
2022/09/19 13:53:33;;;;;;;3.15;0.80;;;15.40;99.90;;;;;;4947495;29;20020;-91
2022/09/19 13:56:01;;;;;;;0.70;0.27;;;15.40;99.90;;;;;;4947971;29;20024;-92
2022/09/19 13:58:32;;;;;;;8.38;1.48;;;15.40;99.90;;;;;;4899203;29;20793;-91